Airfield :
LOGIN :

Register | Disclaimer

   EN    FR    IT 

 










Legend :    VFR   Marginal VFR   IFR   Intensive IFR   Very Intensive IFR
Visi :
Ceiling :
>= 8 km
>= 3000ft
5 to 8 km
1000 to 3000 ft
1500m to 5 km
500 to 1000 ft
800 to 1500m
200 to 500 ft
< 800m
< 200 ft
Symbols :   Thunderstorms  Fog  Heavy snow  Heavy precipitations  Wind > 20 kt
SIGMETs :     Misc.  Thunderstorms  Icing  Turbulence  Mountain Waves  Volcanic Ashes






- Airport Elevation : 13 ft
- IATA code : LYX


EGMD - Lydd

CURRENT METAR :
  • 051250Z AUTO 04012KT 9999 BKN029/// OVC037/// 06/01 Q1031

EXPIRED METARs :
  • 051220Z AUTO 02011KT 9999 SCT026/// BKN032/// BKN037/// 06/02 Q1031
  • 051150Z AUTO 03013KT 9999 SCT031/// BKN037/// OVC044/// 06/01 Q1031
  • 051120Z AUTO 04013KT 9999 SCT029/// OVC035/// 06/01 Q1031
  • 051050Z AUTO 03013KT 9999 BKN034/// OVC039/// 06/01 Q1031
  • 051020Z AUTO 04013KT 9999 BKN034/// OVC040/// 06/00 Q1031

TAF TAF EGMD
Valid from the 05 at 12:00 until the 05 at 21:00 UTC


051058Z 0512/0521 04012KT 9999 SCT040
ATIS : +44 1797 322 422



MET'MAP, your aeronautical weather chart ! - Copyright ORBIFLY December 2007 - Disclaimer

ORBIFLY MET'MAP TEAM :

Programming & Development : Alexandra Zaïnal
Concept & original design : Baudouin d'Aumeries
Assistance for programming : Marc-Olivier Méhu
Technical & hardware support : Manuel Goepfert

Contact : metmap@orbifly.com




SOURCES & CREDITS :

   NOAA